sensor_id;sensor_type;location;lat;lon;timestamp;temperature;humidity
23323;DHT22;11833;52.554;13.554;2023-02-28T01:00:43;2.00;99.90
23323;DHT22;11833;52.554;13.554;2023-02-28T01:03:08;2.00;99.90
23323;DHT22;11833;52.554;13.554;2023-02-28T01:05:34;1.90;99.90
23323;DHT22;11833;52.554;13.554;2023-02-28T01:08:00;1.90;99.90
23323;DHT22;11833;52.554;13.554;2023-02-28T01:10:27;1.90;99.90
23323;DHT22;11833;52.554;13.554;2023-02-28T01:12:56;2.00;99.90
23323;DHT22;11833;52.554;13.554;2023-02-28T01:15:22;2.00;99.90
23323;DHT22;11833;52.554;13.554;2023-02-28T01:17:48;1.90;99.90
23323;DHT22;11833;52.554;13.554;2023-02-28T01:20:14;1.90;99.90
23323;DHT22;11833;52.554;13.554;2023-02-28T01:22:39;1.90;99.90
23323;DHT22;11833;52.554;13.554;2023-02-28T01:25:05;1.90;99.90
23323;DHT22;11833;52.554;13.554;2023-02-28T01:27:31;1.90;99.90
23323;DHT22;11833;52.554;13.554;2023-02-28T01:29:58;1.80;99.90
23323;DHT22;11833;52.554;13.554;2023-02-28T01:32:24;1.70;99.90
23323;DHT22;11833;52.554;13.554;2023-02-28T01:34:50;1.70;99.90
23323;DHT22;11833;52.554;13.554;2023-02-28T01:37:15;1.70;99.90
23323;DHT22;11833;52.554;13.554;2023-02-28T01:39:41;1.60;99.90
23323;DHT22;11833;52.554;13.554;2023-02-28T01:42:09;1.50;99.90
23323;DHT22;11833;52.554;13.554;2023-02-28T01:45:06;1.50;99.90
23323;DHT22;11833;52.554;13.554;2023-02-28T01:47:47;1.40;99.90
23323;DHT22;11833;52.554;13.554;2023-02-28T01:50:20;1.40;99.90
23323;DHT22;11833;52.554;13.554;2023-02-28T01:52:50;1.40;99.90
23323;DHT22;11833;52.554;13.554;2023-02-28T01:55:18;1.40;99.90
23323;DHT22;11833;52.554;13.554;2023-02-28T01:57:51;1.30;99.90
23323;DHT22;11833;52.554;13.554;2023-02-28T02:00:21;1.20;99.90
23323;DHT22;11833;52.554;13.554;2023-02-28T02:02:51;1.10;99.90
23323;DHT22;11833;52.554;13.554;2023-02-28T02:05:30;1.20;99.90
23323;DHT22;11833;52.554;13.554;2023-02-28T02:08:01;1.10;99.90
23323;DHT22;11833;52.554;13.554;2023-02-28T02:10:45;1.00;99.90
23323;DHT22;11833;52.554;13.554;2023-02-28T02:16:34;1.00;99.90
23323;DHT22;11833;52.554;13.554;2023-02-28T02:19:50;1.00;99.90
23323;DHT22;11833;52.554;13.554;2023-02-28T02:23:42;0.90;99.90
23323;DHT22;11833;52.554;13.554;2023-02-28T02:26:03;0.80;99.90
23323;DHT22;11833;52.554;13.554;2023-02-28T02:28:56;0.80;99.90
23323;DHT22;11833;52.554;13.554;2023-02-28T02:32:16;0.80;99.90
23323;DHT22;11833;52.554;13.554;2023-02-28T02:38:06;0.60;99.90
23323;DHT22;11833;52.554;13.554;2023-02-28T02:41:28;0.60;99.90
23323;DHT22;11833;52.554;13.554;2023-02-28T02:43:52;0.60;99.90
23323;DHT22;11833;52.554;13.554;2023-02-28T02:46:28;0.60;99.90
23323;DHT22;11833;52.554;13.554;2023-02-28T02:48:58;0.50;99.90
23323;DHT22;11833;52.554;13.554;2023-02-28T02:51:27;0.50;99.90
23323;DHT22;11833;52.554;13.554;2023-02-28T02:54:16;0.50;99.90
23323;DHT22;11833;52.554;13.554;2023-02-28T02:56:46;0.40;99.90
23323;DHT22;11833;52.554;13.554;2023-02-28T02:59:15;0.40;99.90
23323;DHT22;11833;52.554;13.554;2023-02-28T03:01:55;0.40;99.90
23323;DHT22;11833;52.554;13.554;2023-02-28T03:04:25;0.50;99.90
23323;DHT22;11833;52.554;13.554;2023-02-28T03:06:54;0.50;99.90
23323;DHT22;11833;52.554;13.554;2023-02-28T03:09:24;0.50;99.90
23323;DHT22;11833;52.554;13.554;2023-02-28T03:11:52;0.50;99.90
23323;DHT22;11833;52.554;13.554;2023-02-28T03:14:40;0.40;99.90
23323;DHT22;11833;52.554;13.554;2023-02-28T03:21:12;0.30;99.90
23323;DHT22;11833;52.554;13.554;2023-02-28T03:26:27;0.30;99.90
23323;DHT22;11833;52.554;13.554;2023-02-28T03:29:08;0.30;99.90
23323;DHT22;11833;52.554;13.554;2023-02-28T03:31:59;0.20;99.90
23323;DHT22;11833;52.554;13.554;2023-02-28T03:34:37;0.30;99.90
23323;DHT22;11833;52.554;13.554;2023-02-28T03:37:09;0.20;99.90
23323;DHT22;11833;52.554;13.554;2023-02-28T03:39:41;0.10;99.90
23323;DHT22;11833;52.554;13.554;2023-02-28T03:42:16;0.00;99.90
23323;DHT22;11833;52.554;13.554;2023-02-28T03:44:51;-0.10;99.90
23323;DHT22;11833;52.554;13.554;2023-02-28T03:50:05;0.00;99.90
23323;DHT22;11833;52.554;13.554;2023-02-28T03:52:37;0.10;99.90
23323;DHT22;11833;52.554;13.554;2023-02-28T03:55:10;0.10;99.90
23323;DHT22;11833;52.554;13.554;2023-02-28T03:57:41;0.00;99.90
23323;DHT22;11833;52.554;13.554;2023-02-28T04:02:56;0.00;99.90
23323;DHT22;11833;52.554;13.554;2023-02-28T04:05:22;0.00;99.90
23323;DHT22;11833;52.554;13.554;2023-02-28T04:07:48;0.00;99.90
23323;DHT22;11833;52.554;13.554;2023-02-28T04:10:15;-0.10;99.90
23323;DHT22;11833;52.554;13.554;2023-02-28T04:12:41;-0.20;99.90
23323;DHT22;11833;52.554;13.554;2023-02-28T04:15:07;-0.20;99.90
23323;DHT22;11833;52.554;13.554;2023-02-28T04:17:33;-0.20;99.90
23323;DHT22;11833;52.554;13.554;2023-02-28T04:19:59;-0.30;99.90
23323;DHT22;11833;52.554;13.554;2023-02-28T04:22:25;-0.20;99.90
23323;DHT22;11833;52.554;13.554;2023-02-28T04:24:53;-0.30;99.90
23323;DHT22;11833;52.554;13.554;2023-02-28T04:27:20;-0.30;99.90
23323;DHT22;11833;52.554;13.554;2023-02-28T04:29:46;-0.30;99.90
23323;DHT22;11833;52.554;13.554;2023-02-28T04:32:12;-0.30;99.90
23323;DHT22;11833;52.554;13.554;2023-02-28T04:34:39;-0.50;99.90
23323;DHT22;11833;52.554;13.554;2023-02-28T04:37:05;-0.50;99.90
23323;DHT22;11833;52.554;13.554;2023-02-28T04:39:36;-0.50;99.90
23323;DHT22;11833;52.554;13.554;2023-02-28T04:42:04;-0.40;99.90
23323;DHT22;11833;52.554;13.554;2023-02-28T04:44:29;-0.40;99.90
23323;DHT22;11833;52.554;13.554;2023-02-28T04:46:55;-0.50;99.90
23323;DHT22;11833;52.554;13.554;2023-02-28T04:49:21;-0.50;99.90
23323;DHT22;11833;52.554;13.554;2023-02-28T04:51:46;-0.50;99.90
23323;DHT22;11833;52.554;13.554;2023-02-28T04:54:12;-0.40;99.90
23323;DHT22;11833;52.554;13.554;2023-02-28T04:56:38;-0.40;99.90
23323;DHT22;11833;52.554;13.554;2023-02-28T04:59:04;-0.40;99.90
23323;DHT22;11833;52.554;13.554;2023-02-28T05:01:32;-0.40;99.90
23323;DHT22;11833;52.554;13.554;2023-02-28T05:04:00;-0.40;99.90
23323;DHT22;11833;52.554;13.554;2023-02-28T05:06:28;-0.40;99.90
23323;DHT22;11833;52.554;13.554;2023-02-28T05:08:55;-0.50;99.90
23323;DHT22;11833;52.554;13.554;2023-02-28T05:11:25;-0.50;99.90
23323;DHT22;11833;52.554;13.554;2023-02-28T05:13:54;-0.50;99.90
23323;DHT22;11833;52.554;13.554;2023-02-28T05:16:20;-0.50;99.90
23323;DHT22;11833;52.554;13.554;2023-02-28T05:18:46;-0.50;99.90
23323;DHT22;11833;52.554;13.554;2023-02-28T05:21:33;-0.50;99.90
23323;DHT22;11833;52.554;13.554;2023-02-28T05:24:11;-0.50;99.90
23323;DHT22;11833;52.554;13.554;2023-02-28T05:26:40;-0.60;99.90
23323;DHT22;11833;52.554;13.554;2023-02-28T05:29:07;-0.60;99.90
23323;DHT22;11833;52.554;13.554;2023-02-28T05:31:34;-0.70;99.90
23323;DHT22;11833;52.554;13.554;2023-02-28T05:34:00;-0.70;99.90
23323;DHT22;11833;52.554;13.554;2023-02-28T05:36:26;-0.70;99.90
23323;DHT22;11833;52.554;13.554;2023-02-28T05:38:52;-0.70;99.90
23323;DHT22;11833;52.554;13.554;2023-02-28T05:41:19;-0.70;99.90
23323;DHT22;11833;52.554;13.554;2023-02-28T05:43:45;-0.70;99.90
23323;DHT22;11833;52.554;13.554;2023-02-28T05:46:12;-0.70;99.90
23323;DHT22;11833;52.554;13.554;2023-02-28T05:48:40;-0.70;99.90
23323;DHT22;11833;52.554;13.554;2023-02-28T05:51:07;-0.60;99.90
23323;DHT22;11833;52.554;13.554;2023-02-28T05:53:34;-0.70;99.90
23323;DHT22;11833;52.554;13.554;2023-02-28T05:56:00;-0.60;99.90
23323;DHT22;11833;52.554;13.554;2023-02-28T05:58:27;-0.80;99.90
23323;DHT22;11833;52.554;13.554;2023-02-28T06:00:56;-0.80;99.90
23323;DHT22;11833;52.554;13.554;2023-02-28T06:03:23;-0.80;99.90
23323;DHT22;11833;52.554;13.554;2023-02-28T06:05:49;-0.80;99.90
23323;DHT22;11833;52.554;13.554;2023-02-28T06:08:15;-0.70;99.90
23323;DHT22;11833;52.554;13.554;2023-02-28T06:10:41;-0.70;99.90
23323;DHT22;11833;52.554;13.554;2023-02-28T06:13:07;-0.70;99.90
23323;DHT22;11833;52.554;13.554;2023-02-28T06:15:33;-0.70;99.90
23323;DHT22;11833;52.554;13.554;2023-02-28T06:17:59;-0.70;99.90
23323;DHT22;11833;52.554;13.554;2023-02-28T06:20:26;-0.60;99.90
23323;DHT22;11833;52.554;13.554;2023-02-28T06:22:56;-0.60;99.90
23323;DHT22;11833;52.554;13.554;2023-02-28T06:25:24;-0.60;99.90
23323;DHT22;11833;52.554;13.554;2023-02-28T06:27:50;-0.50;99.90
23323;DHT22;11833;52.554;13.554;2023-02-28T06:30:17;-0.50;99.90
23323;DHT22;11833;52.554;13.554;2023-02-28T06:32:43;-0.50;99.90
23323;DHT22;11833;52.554;13.554;2023-02-28T06:35:09;-0.50;99.90
23323;DHT22;11833;52.554;13.554;2023-02-28T06:37:35;-0.50;99.90
23323;DHT22;11833;52.554;13.554;2023-02-28T06:40:01;-0.50;99.90
23323;DHT22;11833;52.554;13.554;2023-02-28T06:42:27;-0.40;99.90
23323;DHT22;11833;52.554;13.554;2023-02-28T06:44:57;-0.50;99.90
23323;DHT22;11833;52.554;13.554;2023-02-28T06:47:23;-0.40;99.90
23323;DHT22;11833;52.554;13.554;2023-02-28T06:49:49;-0.30;99.90
23323;DHT22;11833;52.554;13.554;2023-02-28T06:52:16;-0.30;99.90
23323;DHT22;11833;52.554;13.554;2023-02-28T06:54:41;-0.20;99.90
23323;DHT22;11833;52.554;13.554;2023-02-28T06:57:07;-0.20;99.90
23323;DHT22;11833;52.554;13.554;2023-02-28T06:59:34;-0.20;99.90
23323;DHT22;11833;52.554;13.554;2023-02-28T07:02:00;-0.10;99.90
23323;DHT22;11833;52.554;13.554;2023-02-28T07:04:27;-0.10;99.90
23323;DHT22;11833;52.554;13.554;2023-02-28T07:06:55;0.00;99.90
23323;DHT22;11833;52.554;13.554;2023-02-28T07:09:22;0.00;99.90
23323;DHT22;11833;52.554;13.554;2023-02-28T07:11:48;0.00;99.90
23323;DHT22;11833;52.554;13.554;2023-02-28T07:14:14;0.10;99.90
23323;DHT22;11833;52.554;13.554;2023-02-28T07:16:40;0.10;99.90
23323;DHT22;11833;52.554;13.554;2023-02-28T07:19:06;0.10;99.90
23323;DHT22;11833;52.554;13.554;2023-02-28T07:21:31;0.20;99.90
23323;DHT22;11833;52.554;13.554;2023-02-28T07:23:57;0.30;99.90
23323;DHT22;11833;52.554;13.554;2023-02-28T07:26:23;0.30;99.90
23323;DHT22;11833;52.554;13.554;2023-02-28T07:28:49;0.40;99.90
23323;DHT22;11833;52.554;13.554;2023-02-28T07:31:16;0.40;99.90
23323;DHT22;11833;52.554;13.554;2023-02-28T07:33:43;0.30;99.90
23323;DHT22;11833;52.554;13.554;2023-02-28T07:36:15;0.40;99.90
23323;DHT22;11833;52.554;13.554;2023-02-28T07:38:46;0.40;99.90
23323;DHT22;11833;52.554;13.554;2023-02-28T07:41:15;0.50;99.90
23323;DHT22;11833;52.554;13.554;2023-02-28T07:43:42;0.70;99.90
23323;DHT22;11833;52.554;13.554;2023-02-28T07:46:12;0.90;99.90
23323;DHT22;11833;52.554;13.554;2023-02-28T07:48:41;1.00;99.90
23323;DHT22;11833;52.554;13.554;2023-02-28T07:51:07;1.10;99.90
23323;DHT22;11833;52.554;13.554;2023-02-28T07:53:32;1.10;99.90
23323;DHT22;11833;52.554;13.554;2023-02-28T07:56:00;1.10;99.90
23323;DHT22;11833;52.554;13.554;2023-02-28T07:58:28;1.30;99.90
23323;DHT22;11833;52.554;13.554;2023-02-28T08:00:54;1.30;99.90
23323;DHT22;11833;52.554;13.554;2023-02-28T08:03:22;1.50;99.90
23323;DHT22;11833;52.554;13.554;2023-02-28T08:05:49;1.60;99.90
23323;DHT22;11833;52.554;13.554;2023-02-28T08:08:15;1.70;99.90
23323;DHT22;11833;52.554;13.554;2023-02-28T08:10:42;1.90;99.90
23323;DHT22;11833;52.554;13.554;2023-02-28T08:13:08;2.00;99.90
23323;DHT22;11833;52.554;13.554;2023-02-28T08:15:35;2.10;99.90
23323;DHT22;11833;52.554;13.554;2023-02-28T08:18:01;2.30;99.90
23323;DHT22;11833;52.554;13.554;2023-02-28T08:20:27;2.40;99.90
23323;DHT22;11833;52.554;13.554;2023-02-28T08:22:53;2.60;99.90
23323;DHT22;11833;52.554;13.554;2023-02-28T08:25:19;2.70;99.90
23323;DHT22;11833;52.554;13.554;2023-02-28T08:27:45;2.70;96.50
23323;DHT22;11833;52.554;13.554;2023-02-28T08:30:12;2.90;94.80
23323;DHT22;11833;52.554;13.554;2023-02-28T08:32:39;3.00;92.30
23323;DHT22;11833;52.554;13.554;2023-02-28T08:35:06;3.10;92.40
23323;DHT22;11833;52.554;13.554;2023-02-28T08:37:32;3.10;91.40
23323;DHT22;11833;52.554;13.554;2023-02-28T08:39:58;3.20;87.30
23323;DHT22;11833;52.554;13.554;2023-02-28T08:42:24;3.20;85.80
23323;DHT22;11833;52.554;13.554;2023-02-28T08:44:50;3.40;88.20
23323;DHT22;11833;52.554;13.554;2023-02-28T08:47:16;3.60;86.20
23323;DHT22;11833;52.554;13.554;2023-02-28T08:49:41;3.60;85.70
23323;DHT22;11833;52.554;13.554;2023-02-28T08:52:07;3.70;84.30
23323;DHT22;11833;52.554;13.554;2023-02-28T08:54:33;3.70;87.80
23323;DHT22;11833;52.554;13.554;2023-02-28T08:56:59;3.90;85.50
23323;DHT22;11833;52.554;13.554;2023-02-28T08:59:25;3.90;81.60
23323;DHT22;11833;52.554;13.554;2023-02-28T09:01:51;4.10;81.10
23323;DHT22;11833;52.554;13.554;2023-02-28T09:04:17;4.30;82.30
23323;DHT22;11833;52.554;13.554;2023-02-28T09:06:42;4.40;86.60
23323;DHT22;11833;52.554;13.554;2023-02-28T09:09:09;4.40;83.10
23323;DHT22;11833;52.554;13.554;2023-02-28T09:11:36;4.50;80.10
23323;DHT22;11833;52.554;13.554;2023-02-28T09:14:02;4.60;79.00
23323;DHT22;11833;52.554;13.554;2023-02-28T09:16:29;4.90;83.60
23323;DHT22;11833;52.554;13.554;2023-02-28T09:18:56;5.20;86.90
23323;DHT22;11833;52.554;13.554;2023-02-28T09:21:22;5.20;76.90
23323;DHT22;11833;52.554;13.554;2023-02-28T09:23:50;5.60;99.80
23323;DHT22;11833;52.554;13.554;2023-02-28T09:26:34;6.10;96.10
23323;DHT22;11833;52.554;13.554;2023-02-28T09:29:00;6.30;99.90
23323;DHT22;11833;52.554;13.554;2023-02-28T09:31:28;7.10;99.90
23323;DHT22;11833;52.554;13.554;2023-02-28T09:33:56;7.50;97.20
23323;DHT22;11833;52.554;13.554;2023-02-28T09:36:23;7.30;93.90
23323;DHT22;11833;52.554;13.554;2023-02-28T09:38:50;7.00;80.60
23323;DHT22;11833;52.554;13.554;2023-02-28T09:41:23;6.80;75.90
23323;DHT22;11833;52.554;13.554;2023-02-28T09:44:01;7.70;96.90
23323;DHT22;11833;52.554;13.554;2023-02-28T09:46:37;7.40;60.60
23323;DHT22;11833;52.554;13.554;2023-02-28T09:49:11;7.10;61.00
23323;DHT22;11833;52.554;13.554;2023-02-28T09:54:21;8.10;64.70
23323;DHT22;11833;52.554;13.554;2023-02-28T09:56:56;8.50;65.40
23323;DHT22;11833;52.554;13.554;2023-02-28T09:59:42;8.90;75.40
23323;DHT22;11833;52.554;13.554;2023-02-28T10:05:22;9.50;64.90
23323;DHT22;11833;52.554;13.554;2023-02-28T10:08:16;8.70;56.70
23323;DHT22;11833;52.554;13.554;2023-02-28T10:10:48;8.80;58.10
23323;DHT22;11833;52.554;13.554;2023-02-28T10:16:22;10.00;57.90
23323;DHT22;11833;52.554;13.554;2023-02-28T10:19:06;11.00;64.00
23323;DHT22;11833;52.554;13.554;2023-02-28T10:21:37;9.70;53.00
23323;DHT22;11833;52.554;13.554;2023-02-28T10:24:45;9.90;58.40
23323;DHT22;11833;52.554;13.554;2023-02-28T10:27:17;10.60;59.60
23323;DHT22;11833;52.554;13.554;2023-02-28T10:29:56;10.20;61.90
23323;DHT22;11833;52.554;13.554;2023-02-28T10:37:57;11.70;51.40
23323;DHT22;11833;52.554;13.554;2023-02-28T10:40:26;12.60;58.10
23323;DHT22;11833;52.554;13.554;2023-02-28T10:43:02;11.60;47.50
23323;DHT22;11833;52.554;13.554;2023-02-28T10:45:40;11.20;57.90
23323;DHT22;11833;52.554;13.554;2023-02-28T10:49:03;11.40;50.00
23323;DHT22;11833;52.554;13.554;2023-02-28T10:51:37;11.50;50.00
23323;DHT22;11833;52.554;13.554;2023-02-28T10:54:04;11.40;53.70
23323;DHT22;11833;52.554;13.554;2023-02-28T10:56:31;12.10;48.80
23323;DHT22;11833;52.554;13.554;2023-02-28T11:01:46;10.90;49.10
23323;DHT22;11833;52.554;13.554;2023-02-28T11:09:52;12.90;46.80
23323;DHT22;11833;52.554;13.554;2023-02-28T11:12:26;13.50;51.30
23323;DHT22;11833;52.554;13.554;2023-02-28T11:15:25;13.40;45.80
23323;DHT22;11833;52.554;13.554;2023-02-28T11:17:54;12.80;48.30
23323;DHT22;11833;52.554;13.554;2023-02-28T11:20:25;13.70;44.50
23323;DHT22;11833;52.554;13.554;2023-02-28T11:22:53;14.20;50.30
23323;DHT22;11833;52.554;13.554;2023-02-28T11:25:30;14.20;41.50
23323;DHT22;11833;52.554;13.554;2023-02-28T11:28:00;13.40;47.80
23323;DHT22;11833;52.554;13.554;2023-02-28T11:33:30;14.10;43.00
23323;DHT22;11833;52.554;13.554;2023-02-28T11:36:03;13.70;44.00
23323;DHT22;11833;52.554;13.554;2023-02-28T11:38:34;13.80;46.50
23323;DHT22;11833;52.554;13.554;2023-02-28T11:43:32;14.90;42.50
23323;DHT22;11833;52.554;13.554;2023-02-28T11:46:47;15.40;44.10
23323;DHT22;11833;52.554;13.554;2023-02-28T11:49:21;15.30;45.20
23323;DHT22;11833;52.554;13.554;2023-02-28T11:52:02;15.40;43.10
23323;DHT22;11833;52.554;13.554;2023-02-28T12:11:25;15.00;39.60
23323;DHT22;11833;52.554;13.554;2023-02-28T12:27:39;16.60;37.00
23323;DHT22;11833;52.554;13.554;2023-02-28T12:33:17;16.90;36.90
23323;DHT22;11833;52.554;13.554;2023-02-28T12:35:59;17.10;38.80
23323;DHT22;11833;52.554;13.554;2023-02-28T12:38:43;17.80;36.40
23323;DHT22;11833;52.554;13.554;2023-02-28T12:41:15;17.80;35.30
23323;DHT22;11833;52.554;13.554;2023-02-28T12:43:46;19.00;36.10
23323;DHT22;11833;52.554;13.554;2023-02-28T12:46:25;18.10;36.10
23323;DHT22;11833;52.554;13.554;2023-02-28T12:49:10;18.00;34.70
23323;DHT22;11833;52.554;13.554;2023-02-28T12:51:39;17.40;32.40
23323;DHT22;11833;52.554;13.554;2023-02-28T12:59:51;19.60;34.20
23323;DHT22;11833;52.554;13.554;2023-02-28T13:05:38;18.00;33.10
23323;DHT22;11833;52.554;13.554;2023-02-28T13:08:23;18.30;34.40
23323;DHT22;11833;52.554;13.554;2023-02-28T13:11:07;18.10;31.90
23323;DHT22;11833;52.554;13.554;2023-02-28T13:14:14;19.30;36.40
23323;DHT22;11833;52.554;13.554;2023-02-28T13:16:57;19.10;31.80
23323;DHT22;11833;52.554;13.554;2023-02-28T13:22:36;19.60;32.90
23323;DHT22;11833;52.554;13.554;2023-02-28T13:28:12;19.60;35.00
23323;DHT22;11833;52.554;13.554;2023-02-28T13:44:28;19.20;32.00
23323;DHT22;11833;52.554;13.554;2023-02-28T14:00:37;19.30;29.00
23323;DHT22;11833;52.554;13.554;2023-02-28T14:09:25;19.70;31.30
23323;DHT22;11833;52.554;13.554;2023-02-28T14:18:30;19.70;29.00
23323;DHT22;11833;52.554;13.554;2023-02-28T14:26:53;20.60;28.10
23323;DHT22;11833;52.554;13.554;2023-02-28T14:36:17;20.40;32.30
23323;DHT22;11833;52.554;13.554;2023-02-28T14:38:55;20.80;30.50
23323;DHT22;11833;52.554;13.554;2023-02-28T14:41:33;20.40;28.20
23323;DHT22;11833;52.554;13.554;2023-02-28T14:44:16;20.50;30.90
23323;DHT22;11833;52.554;13.554;2023-02-28T14:46:44;19.70;28.30
23323;DHT22;11833;52.554;13.554;2023-02-28T14:49:21;19.80;28.70
23323;DHT22;11833;52.554;13.554;2023-02-28T14:54:28;20.30;28.30
23323;DHT22;11833;52.554;13.554;2023-02-28T14:56:54;20.00;28.30
23323;DHT22;11833;52.554;13.554;2023-02-28T15:02:19;20.30;31.00
23323;DHT22;11833;52.554;13.554;2023-02-28T15:04:54;21.30;28.40
23323;DHT22;11833;52.554;13.554;2023-02-28T15:07:22;20.50;27.60
23323;DHT22;11833;52.554;13.554;2023-02-28T15:10:20;19.90;29.40
23323;DHT22;11833;52.554;13.554;2023-02-28T15:13:08;19.60;29.00
23323;DHT22;11833;52.554;13.554;2023-02-28T15:15:42;20.20;31.90
23323;DHT22;11833;52.554;13.554;2023-02-28T15:18:55;19.40;29.60
23323;DHT22;11833;52.554;13.554;2023-02-28T15:21:20;19.30;29.70
23323;DHT22;11833;52.554;13.554;2023-02-28T15:24:17;19.10;28.80
23323;DHT22;11833;52.554;13.554;2023-02-28T15:26:58;19.20;31.50
23323;DHT22;11833;52.554;13.554;2023-02-28T15:29:27;19.60;32.90
23323;DHT22;11833;52.554;13.554;2023-02-28T15:32:04;19.30;30.60
23323;DHT22;11833;52.554;13.554;2023-02-28T15:37:29;19.10;31.50
23323;DHT22;11833;52.554;13.554;2023-02-28T15:40:10;18.70;29.30
23323;DHT22;11833;52.554;13.554;2023-02-28T15:42:36;17.60;33.90
23323;DHT22;11833;52.554;13.554;2023-02-28T15:45:02;18.00;33.30
23323;DHT22;11833;52.554;13.554;2023-02-28T15:47:30;17.90;33.80
23323;DHT22;11833;52.554;13.554;2023-02-28T15:50:09;17.70;30.70
23323;DHT22;11833;52.554;13.554;2023-02-28T15:55:18;17.60;30.90
23323;DHT22;11833;52.554;13.554;2023-02-28T15:57:49;17.20;35.60
23323;DHT22;11833;52.554;13.554;2023-02-28T16:00:21;17.10;32.00
23323;DHT22;11833;52.554;13.554;2023-02-28T16:02:48;17.00;35.10
23323;DHT22;11833;52.554;13.554;2023-02-28T16:05:30;16.90;33.30
23323;DHT22;11833;52.554;13.554;2023-02-28T16:08:15;16.40;32.70
23323;DHT22;11833;52.554;13.554;2023-02-28T16:10:41;16.10;33.40
23323;DHT22;11833;52.554;13.554;2023-02-28T16:13:08;15.50;34.50
23323;DHT22;11833;52.554;13.554;2023-02-28T16:15:41;15.30;34.90
23323;DHT22;11833;52.554;13.554;2023-02-28T16:18:11;15.10;35.30
23323;DHT22;11833;52.554;13.554;2023-02-28T16:20:37;14.70;36.00
23323;DHT22;11833;52.554;13.554;2023-02-28T16:23:04;14.60;36.30
23323;DHT22;11833;52.554;13.554;2023-02-28T16:25:41;14.20;36.50
23323;DHT22;11833;52.554;13.554;2023-02-28T16:28:15;14.00;38.30
23323;DHT22;11833;52.554;13.554;2023-02-28T16:30:45;13.70;38.10
23323;DHT22;11833;52.554;13.554;2023-02-28T16:33:10;13.40;38.90
23323;DHT22;11833;52.554;13.554;2023-02-28T16:35:36;12.90;39.90
23323;DHT22;11833;52.554;13.554;2023-02-28T16:38:03;12.60;40.30
23323;DHT22;11833;52.554;13.554;2023-02-28T16:40:33;12.40;41.70
23323;DHT22;11833;52.554;13.554;2023-02-28T16:43:00;11.70;42.20
23323;DHT22;11833;52.554;13.554;2023-02-28T16:45:31;11.20;43.40
23323;DHT22;11833;52.554;13.554;2023-02-28T16:47:57;10.80;43.90
23323;DHT22;11833;52.554;13.554;2023-02-28T16:50:25;10.50;44.80
23323;DHT22;11833;52.554;13.554;2023-02-28T16:52:53;10.20;45.90
23323;DHT22;11833;52.554;13.554;2023-02-28T16:55:20;10.00;46.60
23323;DHT22;11833;52.554;13.554;2023-02-28T16:57:58;9.80;46.90
23323;DHT22;11833;52.554;13.554;2023-02-28T17:00:26;9.70;47.50
23323;DHT22;11833;52.554;13.554;2023-02-28T17:02:54;9.40;47.60
23323;DHT22;11833;52.554;13.554;2023-02-28T17:05:20;9.20;48.80
23323;DHT22;11833;52.554;13.554;2023-02-28T17:07:46;9.20;49.10
23323;DHT22;11833;52.554;13.554;2023-02-28T17:10:21;9.10;49.20
23323;DHT22;11833;52.554;13.554;2023-02-28T17:12:49;9.00;49.50
23323;DHT22;11833;52.554;13.554;2023-02-28T17:15:17;8.80;50.00
23323;DHT22;11833;52.554;13.554;2023-02-28T17:17:44;8.60;50.50
23323;DHT22;11833;52.554;13.554;2023-02-28T17:20:13;8.60;51.10
23323;DHT22;11833;52.554;13.554;2023-02-28T17:22:44;8.50;50.90
23323;DHT22;11833;52.554;13.554;2023-02-28T17:25:10;8.30;51.10
23323;DHT22;11833;52.554;13.554;2023-02-28T17:27:37;8.20;51.60
23323;DHT22;11833;52.554;13.554;2023-02-28T17:30:17;8.10;51.50
23323;DHT22;11833;52.554;13.554;2023-02-28T17:32:44;7.90;51.90
23323;DHT22;11833;52.554;13.554;2023-02-28T17:35:10;7.80;52.40
23323;DHT22;11833;52.554;13.554;2023-02-28T17:37:36;7.60;52.40
23323;DHT22;11833;52.554;13.554;2023-02-28T17:40:02;7.70;52.50
23323;DHT22;11833;52.554;13.554;2023-02-28T17:42:29;7.60;53.10
23323;DHT22;11833;52.554;13.554;2023-02-28T17:44:54;7.60;53.10
23323;DHT22;11833;52.554;13.554;2023-02-28T17:47:20;7.60;53.50
23323;DHT22;11833;52.554;13.554;2023-02-28T17:49:46;7.60;53.40
23323;DHT22;11833;52.554;13.554;2023-02-28T17:52:11;7.50;53.10
23323;DHT22;11833;52.554;13.554;2023-02-28T17:54:37;7.30;53.10
23323;DHT22;11833;52.554;13.554;2023-02-28T17:57:03;7.30;53.30
23323;DHT22;11833;52.554;13.554;2023-02-28T17:59:29;7.30;53.30
23323;DHT22;11833;52.554;13.554;2023-02-28T18:02:00;7.20;53.40
23323;DHT22;11833;52.554;13.554;2023-02-28T18:04:26;7.10;53.70
23323;DHT22;11833;52.554;13.554;2023-02-28T18:06:52;7.10;54.00
23323;DHT22;11833;52.554;13.554;2023-02-28T18:09:23;7.00;54.10
23323;DHT22;11833;52.554;13.554;2023-02-28T18:11:53;7.00;54.20
23323;DHT22;11833;52.554;13.554;2023-02-28T18:14:21;7.00;54.50
23323;DHT22;11833;52.554;13.554;2023-02-28T18:16:49;6.90;54.60
23323;DHT22;11833;52.554;13.554;2023-02-28T18:19:16;6.80;54.60
23323;DHT22;11833;52.554;13.554;2023-02-28T18:21:48;6.70;55.00
23323;DHT22;11833;52.554;13.554;2023-02-28T18:24:17;6.70;55.10
23323;DHT22;11833;52.554;13.554;2023-02-28T18:26:43;6.70;55.40
23323;DHT22;11833;52.554;13.554;2023-02-28T18:29:16;6.50;55.80
23323;DHT22;11833;52.554;13.554;2023-02-28T18:31:43;6.50;56.10
23323;DHT22;11833;52.554;13.554;2023-02-28T18:34:09;6.50;56.20
23323;DHT22;11833;52.554;13.554;2023-02-28T18:36:34;6.40;56.20
23323;DHT22;11833;52.554;13.554;2023-02-28T18:39:00;6.10;56.70
23323;DHT22;11833;52.554;13.554;2023-02-28T18:41:26;6.20;56.90
23323;DHT22;11833;52.554;13.554;2023-02-28T18:43:53;6.40;57.10
23323;DHT22;11833;52.554;13.554;2023-02-28T18:46:19;6.50;56.30
23323;DHT22;11833;52.554;13.554;2023-02-28T18:48:46;6.50;56.30
23323;DHT22;11833;52.554;13.554;2023-02-28T18:51:21;6.30;56.40
23323;DHT22;11833;52.554;13.554;2023-02-28T18:53:49;6.20;56.90
23323;DHT22;11833;52.554;13.554;2023-02-28T18:56:17;5.90;57.30
23323;DHT22;11833;52.554;13.554;2023-02-28T18:58:44;6.00;57.10
23323;DHT22;11833;52.554;13.554;2023-02-28T19:01:20;6.10;57.20
23323;DHT22;11833;52.554;13.554;2023-02-28T19:03:48;6.00;58.70
23323;DHT22;11833;52.554;13.554;2023-02-28T19:06:15;6.10;59.30
23323;DHT22;11833;52.554;13.554;2023-02-28T19:08:43;6.00;58.20
23323;DHT22;11833;52.554;13.554;2023-02-28T19:11:15;5.90;58.60
23323;DHT22;11833;52.554;13.554;2023-02-28T19:13:42;5.70;59.60
23323;DHT22;11833;52.554;13.554;2023-02-28T19:16:10;5.50;59.80
23323;DHT22;11833;52.554;13.554;2023-02-28T19:18:37;5.30;59.90
23323;DHT22;11833;52.554;13.554;2023-02-28T19:21:05;5.20;59.50
23323;DHT22;11833;52.554;13.554;2023-02-28T19:23:32;5.40;59.70
23323;DHT22;11833;52.554;13.554;2023-02-28T19:25:58;5.50;59.40
23323;DHT22;11833;52.554;13.554;2023-02-28T19:28:28;5.50;60.20